Time;durP1;ratioP1;P1;durP2;ratioP2;P2;SDS_P1;SDS_P2;PMS_P1;PMS_P2;Temp;Humidity;BMP_temperature;BMP_pressure;BME280_temperature;BME280_humidity;BME280_pressure;Samples;Min_cycle;Max_cycle;Signal;HPM_P1;HPM_P2
2023/05/03 00:01:29;;;;;;;11.88;4.88;;;;;;;7.85;100.00;99618.78;4999284;28;20037;-75
2023/05/03 00:03:54;;;;;;;9.18;5.00;;;;;;;7.81;100.00;99612.91;4982455;28;20022;-74
2023/05/03 00:06:20;;;;;;;8.90;4.70;;;;;;;7.73;100.00;99623.66;4972771;28;21302;-76
2023/05/03 00:08:46;;;;;;;11.75;4.97;;;;;;;7.73;100.00;99628.16;4989932;28;20033;-74
2023/05/03 00:11:11;;;;;;;10.75;4.80;;;;;;;7.71;100.00;99622.13;4981946;28;20094;-75
2023/05/03 00:13:36;;;;;;;10.55;5.18;;;;;;;7.69;100.00;99612.34;4977275;28;20069;-78
2023/05/03 00:16:02;;;;;;;8.52;4.60;;;;;;;7.75;100.00;99623.47;5010684;28;20065;-75
2023/05/03 00:18:29;;;;;;;8.60;4.60;;;;;;;7.69;100.00;99625.81;4989638;28;20022;-76
2023/05/03 00:20:54;;;;;;;7.28;4.55;;;;;;;7.64;100.00;99624.63;5010559;28;20018;-76
2023/05/03 00:23:20;;;;;;;10.10;4.97;;;;;;;7.68;100.00;99624.13;5000836;28;20030;-77
2023/05/03 00:25:45;;;;;;;9.77;4.78;;;;;;;7.81;100.00;99622.84;5005136;28;20423;-75
2023/05/03 00:28:11;;;;;;;11.25;5.00;;;;;;;7.87;100.00;99614.91;4968996;28;20109;-77
2023/05/03 00:30:36;;;;;;;7.10;4.50;;;;;;;7.98;100.00;99613.75;4974984;28;20030;-74
2023/05/03 00:33:01;;;;;;;12.85;4.95;;;;;;;8.17;100.00;99625.22;4974852;28;20028;-75
2023/05/03 00:35:26;;;;;;;8.45;4.45;;;;;;;8.24;100.00;99610.06;4976810;28;20031;-75
2023/05/03 00:37:52;;;;;;;9.57;4.28;;;;;;;8.30;100.00;99606.69;4987002;28;20026;-76
2023/05/03 00:40:17;;;;;;;6.95;4.57;;;;;;;8.45;100.00;99614.97;4975823;28;20109;-76
2023/05/03 00:42:44;;;;;;;9.30;4.93;;;;;;;8.46;100.00;99606.72;4977091;28;20081;-74
2023/05/03 00:45:10;;;;;;;9.82;4.32;;;;;;;8.48;100.00;99593.88;4975684;28;20126;-76
2023/05/03 00:47:35;;;;;;;9.52;4.78;;;;;;;8.56;100.00;99601.97;4979085;28;20069;-74
2023/05/03 00:50:01;;;;;;;10.80;5.30;;;;;;;8.52;100.00;99587.16;4991173;28;20034;-75
2023/05/03 00:52:26;;;;;;;8.88;4.90;;;;;;;8.62;100.00;99589.69;4975805;28;20991;-75
2023/05/03 00:54:52;;;;;;;8.48;5.10;;;;;;;8.67;100.00;99597.22;4976671;28;20499;-76
2023/05/03 00:57:18;;;;;;;9.80;5.18;;;;;;;8.64;100.00;99582.22;4989877;28;20027;-74
2023/05/03 00:59:45;;;;;;;9.07;5.15;;;;;;;8.62;100.00;99584.28;4972384;28;20289;-74
2023/05/03 01:02:10;;;;;;;10.43;4.60;;;;;;;8.60;100.00;99580.91;4992114;28;20042;-75
2023/05/03 01:04:36;;;;;;;7.72;4.50;;;;;;;8.51;100.00;99580.09;4976195;28;20499;-75
2023/05/03 01:07:11;;;;;;;7.07;4.65;;;;;;;8.50;100.00;99591.03;4994395;28;20049;-74
2023/05/03 01:09:45;;;;;;;10.23;5.53;;;;;;;8.42;100.00;99594.59;4993719;28;20037;-74
2023/05/03 01:12:13;;;;;;;13.80;5.43;;;;;;;8.37;100.00;99596.06;4975472;28;20518;-75
2023/05/03 01:15:28;;;;;;;10.32;5.40;;;;;;;8.27;100.00;99580.06;4993569;28;20076;-74
2023/05/03 01:17:58;;;;;;;9.43;4.97;;;;;;;8.24;100.00;99592.03;4929676;29;20027;-74
2023/05/03 01:20:27;;;;;;;8.48;4.45;;;;;;;8.10;100.00;99566.59;4936397;29;20163;-74
2023/05/03 01:22:58;;;;;;;8.40;4.85;;;;;;;8.19;100.00;99599.78;4959069;28;20037;-75
2023/05/03 01:25:27;;;;;;;15.10;5.57;;;;;;;8.06;100.00;99585.97;4996036;28;20026;-74
2023/05/03 01:27:53;;;;;;;14.00;5.03;;;;;;;8.17;100.00;99593.69;4981284;28;20038;-73
2023/05/03 01:30:22;;;;;;;7.57;4.28;;;;;;;8.18;100.00;99584.63;4990875;28;20030;-76
2023/05/03 01:33:06;;;;;;;;;;;;;;;8.18;100.00;99581.94;4994483;28;20026;-75
2023/05/03 01:35:40;;;;;;;11.35;4.78;;;;;;;8.22;100.00;99577.88;4991859;28;19964;-74
2023/05/03 01:38:07;;;;;;;6.93;4.68;;;;;;;8.16;100.00;99572.31;4992724;28;20065;-76
2023/05/03 01:40:41;;;;;;;8.55;4.93;;;;;;;8.16;100.00;99581.25;4994653;28;20428;-74
2023/05/03 01:43:10;;;;;;;9.57;4.90;;;;;;;8.09;100.00;99572.16;4973315;28;20495;-74
2023/05/03 01:45:35;;;;;;;8.88;5.13;;;;;;;8.08;100.00;99575.88;4988292;28;20132;-75
2023/05/03 01:48:01;;;;;;;11.40;5.22;;;;;;;8.11;100.00;99568.28;4993129;28;20491;-75
2023/05/03 01:50:26;;;;;;;10.27;5.57;;;;;;;8.09;100.00;99575.69;4975740;28;20033;-75
2023/05/03 01:52:52;;;;;;;14.15;4.55;;;;;;;7.95;100.00;99572.84;4992588;28;20490;-76
2023/05/03 01:55:17;;;;;;;8.88;5.20;;;;;;;7.92;100.00;99579.41;4989856;28;20036;-74
2023/05/03 01:57:43;;;;;;;8.90;4.45;;;;;;;7.86;100.00;99561.22;4988231;28;20022;-74
2023/05/03 02:00:09;;;;;;;10.20;5.72;;;;;;;7.81;100.00;99569.78;4988473;28;20110;-75
2023/05/03 02:02:34;;;;;;;12.20;5.13;;;;;;;7.81;100.00;99585.94;4965954;28;20109;-75
2023/05/03 02:04:59;;;;;;;10.20;5.20;;;;;;;7.74;100.00;99584.09;4979195;28;20507;-77
2023/05/03 02:07:25;;;;;;;10.98;5.28;;;;;;;7.77;100.00;99581.91;4997313;28;20098;-74
2023/05/03 02:09:50;;;;;;;10.55;5.78;;;;;;;7.60;100.00;99581.03;4997452;28;20030;-75
2023/05/03 02:12:15;;;;;;;11.30;5.03;;;;;;;7.49;100.00;99575.94;4994613;28;20023;-75
2023/05/03 02:14:41;;;;;;;15.57;5.75;;;;;;;7.46;100.00;99593.25;4998466;28;20093;-75
2023/05/03 02:17:07;;;;;;;10.57;5.68;;;;;;;7.36;100.00;99589.03;4981301;28;20065;-75
2023/05/03 02:19:32;;;;;;;9.23;5.25;;;;;;;7.39;100.00;99592.25;4999365;28;20025;-75
2023/05/03 02:21:57;;;;;;;8.10;5.40;;;;;;;7.24;100.00;99583.94;5000068;28;20064;-75
2023/05/03 02:24:23;;;;;;;13.82;6.45;;;;;;;7.25;100.00;99592.88;4997873;28;20026;-74
2023/05/03 02:26:48;;;;;;;12.98;6.85;;;;;;;7.11;100.00;99580.88;4996717;28;20022;-76
2023/05/03 02:29:13;;;;;;;11.52;6.10;;;;;;;7.09;100.00;99588.25;4999503;28;20066;-74
2023/05/03 02:31:38;;;;;;;12.18;6.07;;;;;;;7.04;100.00;99595.97;4983686;28;20090;-75
2023/05/03 02:34:04;;;;;;;12.52;6.63;;;;;;;6.97;100.00;99598.47;4996997;28;20022;-74
2023/05/03 02:36:29;;;;;;;14.63;6.40;;;;;;;6.86;100.00;99590.66;4992342;28;20034;-75
2023/05/03 02:38:55;;;;;;;18.42;7.38;;;;;;;6.78;100.00;99579.88;4990610;28;20038;-75
2023/05/03 02:41:20;;;;;;;14.75;6.97;;;;;;;6.64;100.00;99588.53;4995964;28;20441;-75
2023/05/03 02:43:46;;;;;;;10.93;6.43;;;;;;;6.63;100.00;99601.16;4995547;28;20022;-75
2023/05/03 02:46:11;;;;;;;17.08;6.72;;;;;;;6.49;100.00;99596.34;4996496;28;20049;-74
2023/05/03 02:48:36;;;;;;;16.20;7.03;;;;;;;6.43;100.00;99589.75;4990724;28;20066;-74
2023/05/03 02:51:02;;;;;;;14.27;6.55;;;;;;;6.43;100.00;99591.59;4998657;28;20031;-75
2023/05/03 02:53:28;;;;;;;11.10;6.40;;;;;;;6.55;100.00;99606.47;4995578;28;20034;-75
2023/05/03 02:55:53;;;;;;;18.23;7.25;;;;;;;6.50;100.00;99600.72;4994588;28;20022;-75
2023/05/03 02:58:19;;;;;;;13.75;6.75;;;;;;;6.39;100.00;99603.66;4993627;28;20033;-76
2023/05/03 03:00:44;;;;;;;15.38;7.00;;;;;;;6.48;100.00;99622.38;4973808;28;20037;-76
2023/05/03 03:03:09;;;;;;;13.27;7.07;;;;;;;6.44;100.00;99606.72;4994752;28;20014;-76
2023/05/03 03:05:35;;;;;;;15.63;6.93;;;;;;;6.46;100.00;99613.63;4977555;28;20037;-75
2023/05/03 03:08:00;;;;;;;9.77;6.15;;;;;;;6.25;100.00;99605.91;4989606;28;20534;-76
2023/05/03 03:10:25;;;;;;;13.25;6.80;;;;;;;6.21;100.00;99622.47;4995229;28;20027;-76
2023/05/03 03:12:50;;;;;;;13.23;7.15;;;;;;;6.08;100.00;99617.53;4995714;28;20149;-75
2023/05/03 03:15:16;;;;;;;18.30;6.90;;;;;;;6.04;100.00;99618.81;4975855;28;20033;-76
2023/05/03 03:17:41;;;;;;;16.10;7.05;;;;;;;6.06;100.00;99619.53;4987739;28;20027;-76
2023/05/03 03:20:11;;;;;;;16.17;7.68;;;;;;;6.04;100.00;99624.19;4989922;28;20632;-75
2023/05/03 03:22:37;;;;;;;15.15;7.82;;;;;;;5.99;100.00;99621.13;4995344;28;20049;-75
2023/05/03 03:25:03;;;;;;;11.98;6.75;;;;;;;5.88;100.00;99623.00;4995167;28;20041;-75
2023/05/03 03:27:29;;;;;;;17.00;7.82;;;;;;;5.87;100.00;99615.13;5034569;22;20041;-76
2023/05/03 03:29:54;;;;;;;15.43;8.10;;;;;;;5.75;100.00;99603.75;5014102;28;20037;-73
2023/05/03 03:32:20;;;;;;;18.13;8.35;;;;;;;5.81;100.00;99627.28;5003862;28;20063;-75
2023/05/03 03:34:46;;;;;;;17.33;8.38;;;;;;;5.52;100.00;99600.66;5013003;28;20026;-76
2023/05/03 03:37:11;;;;;;;20.00;8.95;;;;;;;5.55;100.00;99618.28;5010588;28;20030;-75
2023/05/03 03:39:38;;;;;;;16.30;8.18;;;;;;;5.48;100.00;99615.38;4983659;28;20431;-75
2023/05/03 03:42:04;;;;;;;19.40;8.38;;;;;;;5.41;100.00;99611.59;4976398;28;20458;-76
2023/05/03 03:44:29;;;;;;;17.45;7.35;;;;;;;5.54;100.00;99632.72;4992871;28;20049;-75
2023/05/03 03:46:55;;;;;;;16.33;7.78;;;;;;;5.35;100.00;99617.59;4992118;28;20022;-76
2023/05/03 03:49:20;;;;;;;15.93;8.65;;;;;;;5.36;100.00;99627.31;4996689;28;20439;-76
2023/05/03 03:51:45;;;;;;;18.98;8.05;;;;;;;5.35;100.00;99636.38;5005829;28;20118;-76
2023/05/03 03:54:11;;;;;;;16.23;7.85;;;;;;;5.22;100.00;99637.56;5005041;28;20040;-75
2023/05/03 03:56:36;;;;;;;20.33;8.80;;;;;;;5.09;100.00;99626.31;4984825;28;20045;-81
2023/05/03 03:59:01;;;;;;;26.13;8.75;;;;;;;5.14;100.00;99644.66;4978997;28;20029;-80
2023/05/03 04:01:26;;;;;;;21.33;8.57;;;;;;;4.93;100.00;99618.91;4984776;28;20133;-78
2023/05/03 04:03:52;;;;;;;22.45;9.43;;;;;;;5.16;100.00;99656.94;4990093;28;20050;-85
2023/05/03 04:06:17;;;;;;;16.63;8.07;;;;;;;5.06;100.00;99656.13;4979390;28;20018;-83
2023/05/03 04:08:43;;;;;;;19.75;8.50;;;;;;;4.89;100.00;99620.19;4993918;28;20106;-81
2023/05/03 04:11:11;;;;;;;17.98;8.15;;;;;;;5.20;100.00;99660.16;4981079;28;20117;-77
2023/05/03 04:13:36;;;;;;;17.10;8.15;;;;;;;4.97;100.00;99617.59;4980320;28;20034;-77
2023/05/03 04:16:02;;;;;;;22.27;9.35;;;;;;;5.11;100.00;99637.75;4973044;28;20026;-78
2023/05/03 04:18:27;;;;;;;14.60;7.78;;;;;;;5.29;100.00;99645.84;5002311;28;20026;-82
2023/05/03 04:20:52;;;;;;;21.10;7.50;;;;;;;5.34;100.00;99666.84;5000606;28;20041;-77
2023/05/03 04:23:18;;;;;;;15.25;8.02;;;;;;;5.34;100.00;99656.13;5000192;28;20556;-81
2023/05/03 04:25:47;;;;;;;18.25;8.02;;;;;;;5.34;100.00;99651.59;4980718;28;20030;-77
2023/05/03 04:28:13;;;;;;;18.08;8.10;;;;;;;5.39;100.00;99653.84;4983382;28;20034;-78
2023/05/03 04:30:40;;;;;;;21.20;9.13;;;;;;;5.39;100.00;99638.59;4981079;28;20030;-78
2023/05/03 04:33:06;;;;;;;17.70;8.07;;;;;;;5.49;100.00;99658.16;4991268;28;20065;-81
2023/05/03 04:35:31;;;;;;;20.00;8.40;;;;;;;5.35;100.00;99631.84;4995755;28;20061;-78
2023/05/03 04:37:56;;;;;;;21.55;8.70;;;;;;;5.42;100.00;99634.75;4999465;28;20499;-76
2023/05/03 04:40:22;;;;;;;19.80;9.38;;;;;;;5.44;100.00;99635.44;4989515;28;20029;-76
2023/05/03 04:42:47;;;;;;;21.42;9.02;;;;;;;5.62;100.00;99640.88;4993776;28;20473;-79
2023/05/03 04:45:13;;;;;;;24.25;8.75;;;;;;;5.63;100.00;99640.72;4971636;28;20030;-78
2023/05/03 04:47:39;;;;;;;17.40;8.60;;;;;;;5.75;100.00;99654.75;4980805;28;20122;-78
2023/05/03 04:50:06;;;;;;;17.48;8.48;;;;;;;5.81;100.00;99645.25;4982642;28;20022;-77
2023/05/03 04:52:32;;;;;;;19.08;8.68;;;;;;;5.93;100.00;99655.66;4988529;28;20030;-76
2023/05/03 04:54:57;;;;;;;18.33;8.50;;;;;;;6.10;100.00;99661.19;4994100;28;20049;-78
2023/05/03 04:57:22;;;;;;;15.55;8.77;;;;;;;6.23;100.00;99658.09;4983275;28;20030;-87
2023/05/03 04:59:49;;;;;;;18.23;8.57;;;;;;;6.31;100.00;99645.59;4986710;28;20022;-78
2023/05/03 05:02:14;;;;;;;17.63;8.30;;;;;;;6.55;100.00;99655.69;5011583;28;20119;-75
2023/05/03 05:04:39;;;;;;;16.02;7.35;;;;;;;6.73;100.00;99658.34;4987147;28;20105;-76
2023/05/03 05:07:05;;;;;;;16.20;7.20;;;;;;;6.89;100.00;99654.94;4984312;28;20022;-86
2023/05/03 05:09:30;;;;;;;22.92;9.07;;;;;;;7.12;100.00;99670.50;4978479;28;20054;-84
2023/05/03 05:11:56;;;;;;;16.55;8.00;;;;;;;7.21;100.00;99648.03;5002826;28;20022;-87
2023/05/03 05:14:21;;;;;;;15.48;8.20;;;;;;;7.28;100.00;99645.53;4982346;28;20041;-77
2023/05/03 05:16:47;;;;;;;16.25;7.97;;;;;;;7.30;100.00;99630.91;4986544;28;23102;-82
2023/05/03 05:19:12;;;;;;;17.40;8.07;;;;;;;7.39;100.00;99629.09;4989284;28;20092;-82
2023/05/03 05:21:38;;;;;;;16.77;7.53;;;;;;;7.50;100.00;99638.72;4979668;28;20022;-87
2023/05/03 05:24:04;;;;;;;15.50;7.45;;;;;;;7.54;100.00;99623.91;4985964;28;20049;-77
2023/05/03 05:26:30;;;;;;;17.65;8.40;;;;;;;7.83;100.00;99639.66;4987462;28;20076;-75
2023/05/03 05:28:55;;;;;;;13.00;7.38;;;;;;;8.07;100.00;99645.09;4995749;28;20042;-78
2023/05/03 05:31:20;;;;;;;16.20;7.60;;;;;;;8.16;100.00;99650.50;4977607;28;20030;-76
2023/05/03 05:33:46;;;;;;;14.45;7.90;;;;;;;8.33;100.00;99627.91;4994762;28;20033;-73
2023/05/03 05:36:11;;;;;;;19.92;7.78;;;;;;;8.59;100.00;99645.81;4991581;28;20034;-72
2023/05/03 05:38:37;;;;;;;17.55;8.20;;;;;;;8.66;100.00;99644.13;4991595;28;20063;-73
2023/05/03 05:41:02;;;;;;;15.23;7.47;;;;;;;8.73;100.00;99618.16;5000539;28;20436;-72
2023/05/03 05:43:27;;;;;;;15.82;7.45;;;;;;;9.22;100.00;99639.59;4990594;28;20117;-73
2023/05/03 05:45:53;;;;;;;15.45;7.47;;;;;;;9.35;100.00;99623.69;5001733;28;20062;-72
2023/05/03 05:48:18;;;;;;;14.60;7.22;;;;;;;9.51;100.00;99643.53;4996528;28;20026;-70
2023/05/03 05:50:44;;;;;;;13.98;7.43;;;;;;;9.76;100.00;99611.81;4971745;28;20025;-70
2023/05/03 05:53:09;;;;;;;12.07;7.20;;;;;;;9.90;100.00;99621.03;4991520;28;20034;-70
2023/05/03 05:55:35;;;;;;;12.73;6.63;;;;;;;10.19;100.00;99615.78;4995346;28;20045;-70
2023/05/03 05:58:00;;;;;;;15.00;7.10;;;;;;;10.31;100.00;99619.75;4993548;28;20106;-70
2023/05/03 06:00:25;;;;;;;12.18;6.45;;;;;;;10.52;100.00;99629.03;4994965;28;20058;-70
2023/05/03 06:02:51;;;;;;;13.90;7.28;;;;;;;11.09;100.00;99622.22;4990202;28;21174;-70
2023/05/03 06:05:16;;;;;;;12.32;6.32;;;;;;;11.49;100.00;99626.28;4993385;28;20054;-71
2023/05/03 06:07:41;;;;;;;14.02;6.75;;;;;;;11.89;100.00;99621.38;4996414;28;20140;-79
2023/05/03 06:10:07;;;;;;;13.18;7.15;;;;;;;13.09;100.00;99609.66;4991255;28;20108;-81
2023/05/03 06:12:35;;;;;;;11.48;6.20;;;;;;;15.55;100.00;99599.03;4986936;28;20026;-82
2023/05/03 06:15:01;;;;;;;10.52;5.68;;;;;;;18.65;94.04;99606.44;4983887;28;20567;-80
2023/05/03 06:17:27;;;;;;;8.57;4.90;;;;;;;20.97;74.86;99600.72;4979901;28;20029;-80
2023/05/03 06:19:52;;;;;;;12.70;5.68;;;;;;;22.04;62.16;99593.03;5004036;28;20114;-76
2023/05/03 06:22:17;;;;;;;14.32;5.57;;;;;;;22.28;58.94;99604.59;4997823;28;20054;-75
2023/05/03 06:24:43;;;;;;;9.57;5.50;;;;;;;21.20;57.43;99599.69;5008398;28;20018;-76
2023/05/03 06:27:08;;;;;;;9.55;4.78;;;;;;;21.28;59.45;99603.91;4978084;28;20057;-75
2023/05/03 06:29:33;;;;;;;8.73;5.03;;;;;;;22.99;54.90;99607.16;4987251;28;20022;-77
2023/05/03 06:31:59;;;;;;;10.93;5.20;;;;;;;24.33;49.75;99583.69;4977709;28;20117;-77
2023/05/03 06:34:24;;;;;;;8.38;5.10;;;;;;;24.79;49.61;99605.88;4997493;28;20394;-76
2023/05/03 06:36:50;;;;;;;10.63;5.45;;;;;;;25.36;48.54;99610.22;4995253;28;20034;-75
2023/05/03 06:39:16;;;;;;;9.23;5.47;;;;;;;25.53;46.97;99571.94;4997231;28;20034;-77
2023/05/03 06:41:41;;;;;;;7.85;5.10;;;;;;;26.79;44.55;99578.94;4997694;28;20033;-73
2023/05/03 06:44:07;;;;;;;6.38;4.47;;;;;;;27.89;42.30;99586.66;4980005;28;20023;-75
2023/05/03 06:46:32;;;;;;;9.23;5.10;;;;;;;27.43;42.78;99582.47;4994277;28;20088;-76
2023/05/03 06:48:58;;;;;;;7.10;4.80;;;;;;;28.63;40.83;99590.53;4990581;28;20033;-75
2023/05/03 06:51:27;;;;;;;6.60;4.57;;;;;;;29.41;40.07;99596.41;4987937;28;20506;-74
2023/05/03 06:53:59;;;;;;;7.45;4.43;;;;;;;29.95;38.99;99591.16;4993218;28;20116;-75
2023/05/03 06:56:25;;;;;;;9.95;4.75;;;;;;;29.16;38.79;99567.09;4982857;28;20027;-75
2023/05/03 06:58:51;;;;;;;6.75;4.90;;;;;;;30.05;37.30;99576.13;4986557;28;20026;-77
2023/05/03 07:01:17;;;;;;;7.18;5.00;;;;;;;28.16;39.17;99577.63;4999235;28;20036;-77
2023/05/03 07:03:43;;;;;;;7.57;4.45;;;;;;;28.17;39.43;99557.03;4993176;28;20026;-78
2023/05/03 07:06:08;;;;;;;8.68;4.72;;;;;;;29.31;38.69;99584.63;5003809;28;20026;-75
2023/05/03 07:08:34;;;;;;;10.77;4.43;;;;;;;29.26;38.51;99574.41;4993891;28;20095;-74
2023/05/03 07:10:59;;;;;;;8.73;4.55;;;;;;;28.02;38.75;99577.56;4994485;28;20642;-75
2023/05/03 07:13:24;;;;;;;8.43;4.68;;;;;;;28.45;38.76;99571.09;4983647;28;20116;-77
2023/05/03 07:15:50;;;;;;;8.20;4.65;;;;;;;29.44;38.21;99576.25;4979510;28;20036;-74
2023/05/03 07:18:15;;;;;;;11.20;4.80;;;;;;;30.08;37.02;99564.34;4994597;28;20468;-76
2023/05/03 07:20:40;;;;;;;8.75;5.05;;;;;;;28.97;39.21;99561.53;4976316;28;20081;-76
2023/05/03 07:23:06;;;;;;;6.25;4.53;;;;;;;29.95;37.25;99570.75;4987051;28;20473;-76
2023/05/03 07:25:32;;;;;;;7.57;4.40;;;;;;;28.69;38.26;99557.88;4992015;28;20072;-71
2023/05/03 07:27:57;;;;;;;6.85;4.75;;;;;;;26.79;40.94;99562.28;4975360;28;20032;-71
2023/05/03 07:30:23;;;;;;;10.93;5.38;;;;;;;26.64;41.67;99560.44;4992079;28;20901;-80
2023/05/03 07:32:49;;;;;;;7.65;4.63;;;;;;;28.07;39.84;99534.94;4986672;28;20566;-78
2023/05/03 07:35:15;;;;;;;10.95;4.93;;;;;;;28.42;38.63;99564.13;4987205;28;20022;-76
2023/05/03 07:37:41;;;;;;;8.07;4.35;;;;;;;29.80;38.31;99558.81;4977865;28;20026;-72
2023/05/03 07:40:08;;;;;;;6.47;4.43;;;;;;;29.65;36.76;99559.16;4997845;28;20036;-76
2023/05/03 07:42:34;;;;;;;5.80;4.25;;;;;;;29.75;37.59;99544.97;4993487;28;20022;-78
2023/05/03 07:45:00;;;;;;;8.40;4.32;;;;;;;31.17;35.82;99539.81;4989401;28;20049;-81
2023/05/03 07:47:26;;;;;;;5.47;4.35;;;;;;;31.61;35.41;99559.56;4999773;28;20484;-80
2023/05/03 07:49:52;;;;;;;7.88;4.38;;;;;;;32.11;34.63;99544.34;4986126;28;20030;-77
2023/05/03 07:52:17;;;;;;;6.00;4.50;;;;;;;30.48;36.07;99556.16;4997102;28;20033;-81
2023/05/03 07:54:44;;;;;;;8.07;4.53;;;;;;;29.70;35.94;99537.53;4982404;28;20030;-80
2023/05/03 07:57:13;;;;;;;6.72;4.60;;;;;;;31.41;34.47;99538.59;5014166;28;20022;-78
2023/05/03 07:59:38;;;;;;;8.95;4.88;;;;;;;28.89;36.36;99537.19;4987416;28;20052;-78
2023/05/03 08:02:04;;;;;;;8.38;4.63;;;;;;;29.12;37.13;99523.41;4977656;28;20484;-72
2023/05/03 08:04:29;;;;;;;8.60;4.20;;;;;;;31.16;34.39;99532.56;4975416;28;20018;-71
2023/05/03 08:06:55;;;;;;;8.07;4.47;;;;;;;29.35;36.26;99536.31;4976049;28;20030;-75
2023/05/03 08:09:20;;;;;;;8.75;4.43;;;;;;;29.77;36.21;99531.56;4992320;28;20026;-75
2023/05/03 08:11:46;;;;;;;7.13;3.97;;;;;;;28.51;37.40;99523.38;4980126;28;20065;-75
2023/05/03 08:14:11;;;;;;;5.68;3.83;;;;;;;25.65;40.53;99540.28;4990240;28;20058;-76
2023/05/03 08:16:37;;;;;;;6.45;4.50;;;;;;;26.73;39.43;99534.88;4980570;28;20696;-77
2023/05/03 08:19:03;;;;;;;7.40;4.53;;;;;;;29.82;36.25;99528.66;4976142;28;20026;-76
2023/05/03 08:21:29;;;;;;;5.78;3.88;;;;;;;29.11;37.86;99524.53;5008032;28;20499;-73
2023/05/03 08:23:55;;;;;;;5.72;3.95;;;;;;;30.06;35.90;99538.72;4992251;28;20023;-72
2023/05/03 08:26:23;;;;;;;6.97;4.18;;;;;;;30.70;36.46;99528.19;4994090;28;20030;-73
2023/05/03 08:28:48;;;;;;;6.25;4.35;;;;;;;30.26;35.02;99527.09;4985486;28;20030;-72
2023/05/03 08:31:13;;;;;;;4.57;3.63;;;;;;;32.14;33.77;99535.28;4975336;28;20491;-73
2023/05/03 08:33:39;;;;;;;5.25;3.90;;;;;;;33.71;32.00;99519.69;4993688;28;20519;-75
2023/05/03 08:36:04;;;;;;;9.13;3.60;;;;;;;34.15;30.99;99541.84;4990473;28;20030;-75
2023/05/03 08:38:30;;;;;;;4.78;3.70;;;;;;;33.60;31.52;99524.06;4991410;28;20024;-75
2023/05/03 08:41:02;;;;;;;6.95;3.70;;;;;;;33.47;31.35;99534.34;4982871;28;20081;-74
2023/05/03 08:43:29;;;;;;;4.47;3.15;;;;;;;33.17;32.36;99539.94;4979812;28;20033;-73
2023/05/03 08:45:54;;;;;;;6.75;3.65;;;;;;;32.66;32.96;99543.69;4987190;28;20488;-73
2023/05/03 08:48:20;;;;;;;7.90;4.10;;;;;;;33.88;32.84;99546.81;4982778;28;20128;-75
2023/05/03 08:50:46;;;;;;;6.43;3.92;;;;;;;32.21;32.78;99541.22;4995152;28;20037;-76
2023/05/03 08:53:11;;;;;;;5.70;3.83;;;;;;;33.78;32.16;99542.44;4992498;28;20038;-77
2023/05/03 08:55:37;;;;;;;6.00;3.27;;;;;;;33.25;31.76;99543.84;4992109;28;20080;-76
2023/05/03 08:58:09;;;;;;;7.07;3.40;;;;;;;35.42;29.98;99507.41;4994558;28;20311;-75
2023/05/03 09:00:35;;;;;;;6.35;3.03;;;;;;;35.95;30.00;99542.09;4968904;28;20049;-76
2023/05/03 09:03:00;;;;;;;4.78;3.10;;;;;;;37.71;28.41;99536.44;4972387;28;20060;-76
2023/05/03 09:05:29;;;;;;;6.40;3.45;;;;;;;37.14;28.91;99535.03;4979773;28;20121;-77
2023/05/03 09:08:11;;;;;;;8.65;4.03;;;;;;;33.31;31.74;99536.88;4991444;28;20026;-71
2023/05/03 09:10:39;;;;;;;5.28;3.47;;;;;;;33.17;31.60;99539.13;4979369;28;20125;-75
2023/05/03 09:13:06;;;;;;;5.40;3.65;;;;;;;29.67;34.98;99542.94;4992426;28;20037;-69
2023/05/03 09:15:32;;;;;;;6.47;4.50;;;;;;;25.00;41.58;99557.69;4991180;28;20026;-68
2023/05/03 09:18:17;;;;;;;6.10;3.50;;;;;;;24.11;43.94;99554.34;4990708;28;20085;-68
2023/05/03 09:20:52;;;;;;;7.45;4.45;;;;;;;23.00;46.01;99558.31;4983507;28;20030;-67
2023/05/03 09:23:24;;;;;;;9.15;4.35;;;;;;;21.95;49.83;99553.25;4990292;28;20018;-68
2023/05/03 09:25:50;;;;;;;8.75;4.60;;;;;;;21.67;50.16;99550.47;5007372;28;20069;-69
2023/05/03 09:28:18;;;;;;;5.45;3.97;;;;;;;24.93;46.69;99544.13;4974780;28;20068;-68
2023/05/03 09:30:45;;;;;;;5.57;3.63;;;;;;;26.34;43.47;99530.19;4992795;28;20034;-68
2023/05/03 09:33:11;;;;;;;6.72;4.82;;;;;;;25.58;43.12;99538.66;4994975;28;20065;-73
2023/05/03 09:35:38;;;;;;;8.25;4.32;;;;;;;25.49;44.63;99540.38;4989745;28;20462;-69
2023/05/03 09:38:03;;;;;;;7.57;4.18;;;;;;;24.10;45.11;99521.44;4991527;28;20026;-69
2023/05/03 09:40:29;;;;;;;6.53;4.05;;;;;;;23.91;47.25;99524.72;4985580;28;20077;-68
2023/05/03 09:43:06;;;;;;;7.32;4.40;;;;;;;24.15;47.84;99547.16;4984115;28;20026;-68
2023/05/03 09:45:31;;;;;;;5.70;4.13;;;;;;;26.88;42.27;99538.31;4986808;28;20182;-68
2023/05/03 09:47:57;;;;;;;6.78;3.90;;;;;;;27.31;42.58;99532.84;4982785;28;20110;-69
2023/05/03 09:50:23;;;;;;;4.57;3.35;;;;;;;24.77;44.58;99533.38;4986160;28;20038;-69
2023/05/03 09:52:50;;;;;;;7.30;3.83;;;;;;;26.23;42.48;99510.84;4998131;28;20108;-69
2023/05/03 09:55:16;;;;;;;6.88;4.13;;;;;;;27.83;41.37;99533.06;4992450;28;20030;-67
2023/05/03 09:57:45;;;;;;;4.55;2.80;;;;;;;27.04;42.42;99515.94;4993194;28;20034;-70
2023/05/03 10:00:12;;;;;;;8.82;4.10;;;;;;;24.67;44.79;99529.50;4988959;28;20026;-69
2023/05/03 10:02:39;;;;;;;5.75;3.65;;;;;;;24.60;46.90;99528.97;4991159;28;20035;-69
2023/05/03 10:05:06;;;;;;;6.28;3.10;;;;;;;28.25;41.48;99516.56;4973305;28;20030;-70
2023/05/03 10:07:33;;;;;;;7.60;3.97;;;;;;;30.42;38.31;99518.31;4983325;28;20026;-70
2023/05/03 10:09:58;;;;;;;5.55;3.38;;;;;;;30.65;37.32;99514.34;4989377;28;20019;-70
2023/05/03 10:12:25;;;;;;;5.03;2.67;;;;;;;29.47;37.72;99489.25;4990049;28;20038;-70
2023/05/03 10:14:52;;;;;;;6.15;3.20;;;;;;;26.40;41.86;99524.28;4996234;28;20107;-70
2023/05/03 10:17:22;;;;;;;4.63;3.22;;;;;;;24.88;44.63;99516.44;4985061;28;20037;-70
2023/05/03 10:20:07;;;;;;;4.90;3.40;;;;;;;22.66;47.76;99528.25;4997212;28;20022;-69
2023/05/03 10:23:05;;;;;;;5.13;2.70;;;;;;;23.08;48.42;99513.63;4984323;28;20041;-69
2023/05/03 10:25:31;;;;;;;5.70;3.37;;;;;;;22.77;49.61;99521.72;4990891;28;20026;-69
2023/05/03 10:28:07;;;;;;;5.00;3.00;;;;;;;22.40;50.04;99508.78;4991221;28;21244;-69
2023/05/03 10:30:35;;;;;;;5.65;3.25;;;;;;;22.58;49.94;99515.78;4975568;28;20110;-69
2023/05/03 10:33:12;;;;;;;5.72;3.60;;;;;;;22.69;49.15;99500.16;4984860;28;20022;-69
2023/05/03 10:35:40;;;;;;;6.47;3.30;;;;;;;22.54;50.82;99514.66;4986929;28;20042;-69
2023/05/03 10:38:18;;;;;;;4.53;3.33;;;;;;;22.71;50.73;99517.25;4975043;28;20065;-69
2023/05/03 10:40:44;;;;;;;7.18;4.40;;;;;;;22.18;50.07;99506.06;4992594;28;20038;-69
2023/05/03 10:43:27;;;;;;;7.82;3.53;;;;;;;24.17;49.75;99502.66;4993841;28;20026;-69
2023/05/03 10:45:55;;;;;;;5.38;3.33;;;;;;;23.49;47.54;99502.78;4989902;28;20562;-69
2023/05/03 10:48:21;;;;;;;6.77;3.50;;;;;;;23.22;49.05;99500.19;4990836;28;20026;-69
2023/05/03 10:50:48;;;;;;;10.50;4.00;;;;;;;22.36;49.89;99490.28;4992393;28;20030;-69
2023/05/03 10:53:35;;;;;;;8.18;3.72;;;;;;;21.41;50.16;99501.72;4989360;28;20106;-69
2023/05/03 10:56:06;;;;;;;5.65;3.70;;;;;;;20.97;52.30;99496.19;4983972;28;20369;-69
2023/05/03 10:58:43;;;;;;;6.47;3.25;;;;;;;22.10;53.20;99484.50;4995718;28;20042;-70
2023/05/03 11:01:11;;;;;;;6.03;3.13;;;;;;;22.73;52.24;99495.75;4990136;28;20384;-69
2023/05/03 11:04:07;;;;;;;7.45;3.30;;;;;;;23.08;50.51;99481.38;4988422;28;20100;-70
2023/05/03 11:06:37;;;;;;;7.75;3.45;;;;;;;24.74;48.03;99484.13;4991105;28;20060;-71
2023/05/03 11:09:05;;;;;;;8.70;4.18;;;;;;;24.78;46.83;99482.44;4968006;28;20495;-71
2023/05/03 11:11:31;;;;;;;5.78;3.55;;;;;;;24.63;47.54;99477.78;4990829;28;20080;-70
2023/05/03 11:13:56;;;;;;;7.28;3.53;;;;;;;24.41;48.08;99475.25;4991960;28;20030;-70
2023/05/03 11:16:22;;;;;;;5.63;3.33;;;;;;;26.45;45.69;99463.19;4988993;28;20030;-71
2023/05/03 11:18:47;;;;;;;6.22;3.35;;;;;;;26.40;45.54;99466.00;4976586;28;20029;-71
2023/05/03 11:21:13;;;;;;;6.18;3.78;;;;;;;25.55;46.88;99466.38;5000329;28;20377;-71
2023/05/03 11:23:40;;;;;;;6.70;3.33;;;;;;;25.37;45.43;99459.53;4995526;28;20031;-71
2023/05/03 11:26:06;;;;;;;5.85;3.70;;;;;;;28.94;41.51;99445.16;4997941;28;20026;-71
2023/05/03 11:28:31;;;;;;;4.95;3.30;;;;;;;29.58;39.42;99438.78;4990488;28;20452;-71